createdAt,value
2022-12-13T00:02:58.966Z,30.46
2022-12-13T00:08:05.181Z,30.69
2022-12-13T00:13:11.668Z,27.92
2022-12-13T00:18:17.755Z,28.95
2022-12-13T00:23:24.261Z,27.89
2022-12-13T00:28:30.341Z,30.51
2022-12-13T00:33:36.594Z,29.85
2022-12-13T00:38:42.843Z,27.93
2022-12-13T00:43:49.034Z,26.28
2022-12-13T00:48:55.880Z,27.44
2022-12-13T00:54:02.063Z,26.37
2022-12-13T00:59:08.180Z,26.80
2022-12-13T01:04:14.622Z,27.22
2022-12-13T01:09:20.720Z,25.28
2022-12-13T01:14:26.922Z,27.76
2022-12-13T01:19:32.526Z,25.79
2022-12-13T01:24:38.726Z,25.33
2022-12-13T01:29:44.866Z,27.08
2022-12-13T01:34:51.098Z,24.98
2022-12-13T01:39:58.442Z,26.62
2022-12-13T01:45:02.865Z,27.37
2022-12-13T01:50:08.975Z,28.50
2022-12-13T01:55:15.202Z,27.44
2022-12-13T02:00:21.345Z,33.59
2022-12-13T02:05:27.914Z,34.79
2022-12-13T02:10:33.920Z,37.06
2022-12-13T02:15:40.173Z,35.73
2022-12-13T02:20:46.617Z,39.87
2022-12-13T02:25:52.916Z,39.12
2022-12-13T02:31:48.871Z,40.15
2022-12-13T02:36:55.422Z,32.91
2022-12-13T02:42:01.476Z,34.01
2022-12-13T02:47:12.566Z,33.95
2022-12-13T02:52:14.018Z,36.52
2022-12-13T02:57:21.673Z,34.71
2022-12-13T03:02:31.569Z,37.61
2022-12-13T03:07:31.070Z,38.21
2022-12-13T03:12:37.209Z,52.76
2022-12-13T03:17:43.035Z,36.51
2022-12-13T03:22:49.172Z,39.07
2022-12-13T03:27:55.320Z,37.21
2022-12-13T03:33:00.963Z,39.35
2022-12-13T03:38:07.161Z,38.93
2022-12-13T03:43:13.373Z,40.18
2022-12-13T03:48:21.970Z,40.37
2022-12-13T03:53:32.130Z,41.47
2022-12-13T03:58:35.449Z,42.75
2022-12-13T04:03:36.490Z,40.72
2022-12-13T04:08:42.781Z,36.96
2022-12-13T04:13:48.833Z,37.30
2022-12-13T04:18:55.010Z,47.66
2022-12-13T04:24:01.379Z,36.59
2022-12-13T04:29:07.281Z,37.23
2022-12-13T04:34:13.488Z,35.05
2022-12-13T04:39:21.965Z,34.65
2022-12-13T04:44:28.700Z,33.06
2022-12-13T04:49:31.109Z,34.84
2022-12-13T04:54:37.947Z,30.92
2022-12-13T04:59:44.182Z,30.97
2022-12-13T05:04:53.838Z,34.61
2022-12-13T05:09:55.963Z,30.17
2022-12-13T05:15:02.098Z,31.16
2022-12-13T05:20:08.286Z,32.97
2022-12-13T05:25:17.252Z,28.15
2022-12-13T05:30:23.154Z,29.71
2022-12-13T05:35:29.221Z,31.57
2022-12-13T05:40:35.468Z,30.23
2022-12-13T05:45:42.050Z,25.69
2022-12-13T05:50:48.157Z,28.94
2022-12-13T05:55:54.301Z,28.29
2022-12-13T06:01:00.577Z,27.21
2022-12-13T06:06:10.114Z,26.50
2022-12-13T06:11:31.405Z,23.96
2022-12-13T06:16:24.376Z,27.11
2022-12-13T06:21:29.608Z,25.60
2022-12-13T06:26:33.908Z,23.86
2022-12-13T06:31:40.186Z,25.18
2022-12-13T06:36:46.330Z,24.24
2022-12-13T06:41:52.539Z,28.10
2022-12-13T06:47:11.740Z,27.19
2022-12-13T06:52:04.301Z,26.86
2022-12-13T06:57:10.455Z,24.81
2022-12-13T07:02:25.003Z,23.46
2022-12-13T07:07:22.373Z,25.45
2022-12-13T07:12:28.575Z,25.14
2022-12-13T07:17:34.779Z,24.92
2022-12-13T07:22:47.202Z,26.23
2022-12-13T07:27:46.480Z,27.94
2022-12-13T07:32:52.611Z,23.04
2022-12-13T07:37:58.667Z,23.40
2022-12-13T07:43:04.935Z,21.76
2022-12-13T07:48:11.757Z,24.44
2022-12-13T07:53:18.165Z,25.19
2022-12-13T07:58:23.489Z,25.04
2022-12-13T08:03:29.799Z,24.62
2022-12-13T08:08:36.075Z,24.31
2022-12-13T08:13:42.182Z,22.34
2022-12-13T08:18:48.358Z,22.97
2022-12-13T08:23:54.577Z,24.20
2022-12-13T08:29:00.652Z,25.52
2022-12-13T08:34:06.790Z,24.22
2022-12-13T08:39:12.867Z,23.46
2022-12-13T08:44:19.328Z,26.46
2022-12-13T08:49:25.482Z,22.45
2022-12-13T08:54:31.939Z,23.68
2022-12-13T08:59:37.849Z,23.63
2022-12-13T09:04:44.013Z,24.17
2022-12-13T09:09:55.121Z,26.67
2022-12-13T09:15:01.297Z,24.28
2022-12-13T09:20:01.560Z,24.09
2022-12-13T09:25:07.236Z,25.82
2022-12-13T09:30:12.837Z,24.93
2022-12-13T09:35:19.120Z,25.66
2022-12-13T09:40:37.484Z,24.00
2022-12-13T09:45:32.054Z,25.29
2022-12-13T09:50:38.550Z,25.01
2022-12-13T09:55:42.068Z,27.21
2022-12-13T10:00:48.204Z,25.02
2022-12-13T10:05:54.486Z,26.14
2022-12-13T10:11:00.658Z,26.05
2022-12-13T10:16:06.881Z,26.37
2022-12-13T10:21:12.891Z,27.36
2022-12-13T10:26:55.014Z,29.48
2022-12-13T10:32:01.010Z,26.15
2022-12-13T10:37:06.790Z,27.64
2022-12-13T10:42:12.944Z,27.81
2022-12-13T10:47:18.744Z,27.18
2022-12-13T10:52:30.923Z,27.79
2022-12-13T10:57:30.614Z,26.02
2022-12-13T11:02:36.869Z,27.74
2022-12-13T11:07:42.993Z,27.67
2022-12-13T11:12:49.105Z,27.00
2022-12-13T11:17:57.472Z,29.51
2022-12-13T11:23:44.862Z,31.50
2022-12-13T11:28:51.046Z,29.62
2022-12-13T11:33:57.552Z,30.40
2022-12-13T11:39:03.716Z,31.98
2022-12-13T11:44:09.927Z,31.31
2022-12-13T11:49:16.111Z,30.49
2022-12-13T11:54:23.625Z,34.51
2022-12-13T11:59:28.307Z,35.06
2022-12-13T12:04:33.523Z,34.65
2022-12-13T12:09:39.838Z,36.56
2022-12-13T12:14:46.004Z,37.87
2022-12-13T12:19:52.254Z,36.54
2022-12-13T12:24:58.292Z,39.34
2022-12-13T12:30:04.481Z,41.45
2022-12-13T12:35:10.542Z,41.68
2022-12-13T12:40:16.406Z,42.68
2022-12-13T12:50:46.233Z,81.17
2022-12-13T12:55:52.299Z,43.36
2022-12-13T13:00:58.471Z,44.67
2022-12-13T13:06:04.541Z,43.84
2022-12-13T13:11:25.139Z,46.60
2022-12-13T13:16:16.613Z,42.90
2022-12-13T13:21:22.748Z,43.86
2022-12-13T13:26:34.325Z,42.68
2022-12-13T13:31:34.675Z,44.01
2022-12-13T13:36:40.769Z,42.37
2022-12-13T13:41:47.090Z,41.88
2022-12-13T13:46:53.186Z,41.76
2022-12-13T13:52:25.056Z,40.92
2022-12-13T13:57:05.030Z,43.33
2022-12-13T14:02:11.307Z,39.71
2022-12-13T14:07:20.835Z,40.73
2022-12-13T14:12:23.295Z,43.54
2022-12-13T14:17:29.374Z,42.25
2022-12-13T14:22:35.555Z,38.13
2022-12-13T14:27:41.624Z,39.42
2022-12-13T14:32:47.847Z,41.50
2022-12-13T14:37:53.923Z,40.94
2022-12-13T14:42:59.616Z,38.74
2022-12-13T14:48:05.802Z,38.23
2022-12-13T14:53:12.030Z,34.35
2022-12-13T14:58:18.105Z,37.18
2022-12-13T15:03:26.239Z,35.98
2022-12-13T15:08:31.493Z,37.04
2022-12-13T15:13:37.747Z,37.36
2022-12-13T15:18:50.441Z,37.64
2022-12-13T15:23:50.023Z,41.98
2022-12-13T15:28:55.846Z,48.05
2022-12-13T15:34:02.089Z,42.16
2022-12-13T15:39:08.230Z,45.41
2022-12-13T15:44:14.434Z,51.89
2022-12-13T15:49:20.599Z,92.90
2022-12-13T15:54:27.204Z,51.39
2022-12-13T15:59:33.654Z,46.31
2022-12-13T16:04:39.866Z,52.58
2022-12-13T16:09:46.042Z,46.98
2022-12-13T16:14:52.241Z,48.57
2022-12-13T16:19:57.917Z,49.63
2022-12-13T16:25:04.352Z,49.63
2022-12-13T16:30:10.451Z,46.22
2022-12-13T16:35:16.636Z,47.52
2022-12-13T16:40:22.699Z,40.56
2022-12-13T16:45:42.277Z,44.84
2022-12-13T16:50:34.595Z,46.24
2022-12-13T16:55:41.112Z,48.86
2022-12-13T17:00:47.307Z,48.31
2022-12-13T17:05:58.681Z,47.87
2022-12-13T17:10:59.089Z,45.49
2022-12-13T17:16:05.293Z,52.51
2022-12-13T17:21:11.452Z,52.50
2022-12-13T17:26:17.724Z,56.85
2022-12-13T17:31:23.864Z,55.18
2022-12-13T17:36:30.017Z,53.25
2022-12-13T17:41:36.168Z,54.55
2022-12-13T17:46:42.766Z,56.66
2022-12-13T17:51:51.416Z,50.29
2022-12-13T17:56:54.540Z,48.95
2022-12-13T18:02:02.819Z,49.73
2022-12-13T18:07:09.003Z,50.37
2022-12-13T18:12:15.131Z,48.46
2022-12-13T18:17:22.610Z,49.33
2022-12-13T18:22:27.421Z,44.16
2022-12-13T18:27:33.617Z,40.35
2022-12-13T18:32:39.688Z,39.38
2022-12-13T18:37:45.830Z,37.14
2022-12-13T18:42:51.926Z,36.25
2022-12-13T18:47:58.265Z,36.65
2022-12-13T18:53:04.326Z,37.69
2022-12-13T18:58:10.580Z,34.12
2022-12-13T19:03:16.697Z,33.25
2022-12-13T19:08:23.228Z,34.60
2022-12-13T19:13:30.031Z,33.48
2022-12-13T19:18:35.591Z,34.35
2022-12-13T19:23:42.712Z,32.94
2022-12-13T19:28:47.591Z,31.29
2022-12-13T19:33:53.691Z,32.33
2022-12-13T19:38:59.960Z,29.26
2022-12-13T19:44:06.017Z,29.59
2022-12-13T19:49:12.169Z,30.48
2022-12-13T19:54:18.314Z,30.07
2022-12-13T19:59:24.528Z,30.16
2022-12-13T20:04:30.712Z,31.48
2022-12-13T20:09:36.921Z,29.78
2022-12-13T20:14:43.082Z,27.84
2022-12-13T20:19:49.345Z,27.46
2022-12-13T20:24:55.440Z,29.57
2022-12-13T20:30:01.611Z,28.08
2022-12-13T20:35:07.756Z,29.04
2022-12-13T20:40:13.980Z,30.60
2022-12-13T20:45:20.035Z,28.88
2022-12-13T20:50:26.180Z,29.33
2022-12-13T20:55:35.781Z,28.26
2022-12-13T21:00:42.436Z,27.97
2022-12-13T21:05:48.681Z,29.22
2022-12-13T21:10:54.832Z,27.07
2022-12-13T21:16:01.004Z,28.58
2022-12-13T21:21:07.180Z,29.51
2022-12-13T21:26:13.307Z,27.50
2022-12-13T21:31:19.598Z,28.81
2022-12-13T21:36:25.614Z,29.95
2022-12-13T21:41:31.785Z,30.61
2022-12-13T21:51:48.220Z,31.73
2022-12-13T21:57:31.254Z,31.99
2022-12-13T22:02:37.611Z,29.54
2022-12-13T22:07:43.685Z,29.63
2022-12-13T22:12:49.388Z,29.02
2022-12-13T22:17:55.543Z,28.15
2022-12-13T22:23:01.747Z,26.57
2022-12-13T22:28:07.911Z,29.04
2022-12-13T22:33:14.131Z,29.41
2022-12-13T22:38:20.313Z,26.58
2022-12-13T22:43:26.611Z,26.55
2022-12-13T22:48:32.721Z,26.63
2022-12-13T22:53:38.922Z,27.28
2022-12-13T22:58:45.030Z,27.24
2022-12-13T23:03:51.579Z,27.40
2022-12-13T23:08:58.437Z,25.19
2022-12-13T23:14:04.800Z,24.51
2022-12-13T23:19:40.475Z,26.21
2022-12-13T23:24:16.536Z,23.67
2022-12-13T23:29:22.696Z,24.65
2022-12-13T23:34:29.772Z,24.96
2022-12-13T23:39:35.836Z,24.42
2022-12-13T23:45:28.540Z,28.33
2022-12-13T23:50:34.598Z,26.78
2022-12-13T23:55:41.148Z,23.35
